x

Cape San Martin - 55nm West Nw Of Morro Bay, Ca (46028) Wave Buoy

4:50am - Tue 29th Jul 2014 All times are PDT. -7 hours from GMT.

  • Sig Wave height 4.6ft
  • Swell Direction
  • Peak Period 8s
  • Average Period 7s
  • Wind
    11mph, 13mph gusts
  • Sea Temp 64°f
  • Air Temp 62°f
  • Sea Pressure 1016.8mb
  • Cape San Martin - 55nm West Nw Of Morro Bay, Ca
  • Cape San Martin - 55nm West Nw Of Morro Bay, Ca

More Historic Weather Station data

Upgrade to MSW Pro to gain access to the past 30 days of data for over 8000 Wavebouys and Weather Stations around the globe.

Join Pro

Comparision Forecast

View Surf forecast
   
Tue 07/29 4:50am 4.5ft 8s 7s 11 13 mph 1016.8mb 64f 62f
3:50am 4.5ft 8s 7s 9 13 mph 1017.1mb 65f 62f
2:50am  -   -   -  9 13 mph 1017.1mb 65f 62f
1:50am 4.5ft 8s 7s 11
mph
1017.1mb 65f 62f
12:50am 4.5ft 8s 7s 9 13 mph 1017.4mb 65f 62f
Mon 07/28 11:50pm 4.5ft 8s 7s 9
mph
1017.7mb 65f 63f
10:50pm 4.5ft 9s 7s 7 11 mph 1017.8mb 65f 63f
9:50pm 4.5ft 8s 7s 7 11 mph 1017.7mb 66f 63f
8:50pm 4.5ft 8s 7s 9 11 mph 1017.3mb 66f 63f
7:50pm 4.5ft 8s 7s 7 9 mph 1017.1mb 66f 64f
6:50pm 5ft 8s 7s 7 9 mph 1016.8mb 66f 64f
5:50pm 4.5ft 9s 7s 9
mph
1017.1mb 67f 64f
4:50pm  -   -   -  7 9 mph 1017.2mb 67f 64f
3:50pm 4.5ft 8s 7s 4
mph
1017.9mb 67f 64f
2:50pm 4.5ft 8s 7s 2 4 mph 1018.2mb 67f 63f
1:50pm 4ft 8s 7s 2 7 mph 1018.5mb 67f 63f
12:50pm 4ft 8s 7s  -  2 mph 1018.8mb 66f 64f
11:50am 4ft 8s 7s 2 4 mph 1018.8mb 65f 63f
10:50am 4.5ft 8s 7s  -  4 mph 1018.6mb 65f 63f
9:50am 4.5ft 8s 7s 2
mph
1018.4mb 64f 62f
8:50am 4.5ft 15s 7s 2 4 mph 1017.9mb 64f 62f
7:50am 4.5ft 8s 7s 4 7 mph 1017.2mb 64f 61f
6:50am 5ft 8s 7s 2 4 mph 1016.8mb 64f 61f
5:50am 5ft 8s 7s 7 9 mph 1016.3mb 64f 61f
4:50am 4.5ft 8s 7s 9 11 mph 1015.9mb 64f 61f
3:50am 5ft 8s 7s 7 9 mph 1015.7mb 65f 61f
2:50am 5ft 7s 7s 9 11 mph 1015.5mb 65f 62f
1:50am 5ft 8s 7s 7 11 mph 1015.9mb 65f 62f
12:50am 5ft 8s 7s 7 9 mph 1015.9mb 65f 61f
Sun 07/27 11:50pm 4.5ft 8s 7s 7 9 mph 1015.9mb 65f 61f
10:50pm 4.5ft 8s 7s 7 9 mph 1016mb 65f 62f
9:50pm 4.5ft 8s 7s 4 7 mph 1016mb 65f 62f
8:50pm 4.5ft 8s 7s 7 9 mph 1015.6mb 66f 62f
7:50pm 4.5ft 15s 7s 4 9 mph 1015.4mb 66f 62f
6:50pm 4.5ft 8s 7s 4 7 mph 1015.7mb 66f 62f
5:50pm 4.5ft 8s 7s 4 7 mph 1015.5mb 66f 62f
4:50pm 5ft 8s 7s 4 7 mph 1015.3mb 65f 63f
3:50pm 5ft 9s 7s 4 7 mph 1015.8mb 65f 62f
2:50pm 5ft 8s 7s 7 9 mph 1015.9mb 65f 62f
1:50pm 5ft 8s 7s 7 9 mph 1016mb 65f 62f
12:50pm  -   -   -  7 9 mph 1015.9mb 65f 62f
11:50am 5ft 8s 7s 7 9 mph 1015.9mb 64f 62f
10:50am 5ft 8s 7s 7 9 mph 1016mb 64f 62f
9:50am 5ft 8s 7s 2 4 mph 1015.8mb 64f 62f
8:50am 5ft 8s 7s 7
mph
1015.9mb 64f 62f
7:50am  -   -   -  9 11 mph 1015.5mb 64f 61f
6:50am 5ft 8s 7s 7 9 mph 1014.8mb 64f 62f
5:50am 5ft 8s 7s 4 7 mph 1014.6mb 64f 61f
4:50am 4.5ft 8s 7s 7 11 mph 1014.2mb 64f 61f
3:50am  -   -   -  9 11 mph 1014.4mb 64f 61f
2:50am 4.5ft 8s 7s 9 11 mph 1014.8mb 63f 61f
1:50am 5ft 8s 7s 9 11 mph 1014.8mb 63f 61f
12:50am 4.5ft 8s 7s 4 9 mph 1014.7mb 63f 61f
Sat 07/26 11:50pm 4.5ft 8s 7s 7
mph
1014.5mb 63f 61f
10:50pm  -   -   -  2 4 mph 1015mb 63f 61f
9:50pm 5ft 9s 7s 7 9 mph 1014.6mb 63f 61f
8:50pm 5ft 8s 7s 7 9 mph 1014.1mb 63f 61f
7:50pm 6ft 8s 7s 7 9 mph 1013.9mb 63f 61f
6:50pm 6ft 9s 7s 4 7 mph 1014mb 63f 61f
5:50pm 7ft 9s 7s 2 7 mph 1014.3mb 64f 61f
4:50pm 6ft 9s 7s 4 7 mph 1014.5mb 64f 61f
3:50pm 6ft 9s 7s 2 4 mph 1014.8mb 64f 62f
2:50pm 6ft 9s 7s 2 4 mph 1015.2mb 64f 61f
1:50pm 6.5ft 9s 7s 2 4 mph 1015.2mb 63f 61f
12:50pm  -   -   -  2 7 mph 1015.3mb 63f 60f
11:50am 7.5ft 9s 8s  -  2 mph 1015.3mb 63f 60f
10:50am  -   -   -  2 4 mph 1015.1mb 62f 59f
9:50am 7ft 9s 8s 2 4 mph 1014.7mb 62f 60f
8:50am 7ft 9s 7s 2 4 mph 1014.3mb 62f 60f
7:50am 7ft 9s 7s 2 4 mph 1014mb 62f 60f
6:50am 6.5ft 9s 7s  -  2 mph 1013.7mb 62f 60f
5:50am 6.5ft 9s 7s  -  2 mph 1012.9mb 62f 60f
4:50am 6.5ft 9s 8s  -  4 mph 1012.7mb 62f 60f
2:50am 6ft 10s 7s  -  2 mph 1012.6mb 62f 60f
1:50am 6ft 9s 8s 2 4 mph 1012.9mb 62f 61f
12:50am 5.5ft 10s 7s 2 4 mph 1013.1mb 62f 61f
Fri 07/25 11:50pm 6ft 10s 8s 2 4 mph 1013.1mb 62f 61f
10:50pm 6ft 10s 8s 4 7 mph 1013mb 62f 61f
9:50pm 7ft 10s 8s 4 9 mph 1012.6mb 62f 61f
8:50pm 7ft 10s 8s 9 11 mph 1012.2mb 62f 61f
7:50pm 7ft 9s 7s 7 11 mph 1012mb 62f 61f
6:50pm 8ft 10s 8s 9 11 mph 1011.9mb 62f 61f
5:50pm 9ft 10s 8s 7 9 mph 1012mb 62f 61f
4:50pm  -   -   -  7 9 mph 1012.2mb 63f 61f
3:50pm 8ft 10s 7s 7 9 mph 1012.6mb 62f 61f
2:50pm  -   -   -  4 9 mph 1012.8mb 62f 61f
1:50pm 8ft 9s 7s 4 7 mph 1013.2mb 62f 61f